sensor_id;sensor_type;location;lat;lon;timestamp;pressure;altitude;pressure_sealevel;temperature;humidity
56928;BME280;60850;52.502;13.426;2023-01-31T00:01:09;100890.34;;;3.36;100.00
56928;BME280;60850;52.502;13.426;2023-01-31T00:03:36;100889.47;;;3.38;100.00
56928;BME280;60850;52.502;13.426;2023-01-31T00:06:16;100893.00;;;3.34;100.00
56928;BME280;60850;52.502;13.426;2023-01-31T00:08:44;100895.63;;;3.37;100.00
56928;BME280;60850;52.502;13.426;2023-01-31T00:11:14;100904.41;;;3.32;100.00
56928;BME280;60850;52.502;13.426;2023-01-31T00:13:41;100896.47;;;3.28;100.00
56928;BME280;60850;52.502;13.426;2023-01-31T00:16:09;100896.50;;;3.32;100.00
56928;BME280;60850;52.502;13.426;2023-01-31T00:18:37;100909.69;;;3.35;100.00
56928;BME280;60850;52.502;13.426;2023-01-31T00:21:06;100908.75;;;3.29;100.00
56928;BME280;60850;52.502;13.426;2023-01-31T00:23:34;100910.56;;;3.34;100.00
56928;BME280;60850;52.502;13.426;2023-01-31T00:26:13;100917.59;;;3.35;100.00
56928;BME280;60850;52.502;13.426;2023-01-31T00:28:41;100915.81;;;3.34;100.00
56928;BME280;60850;52.502;13.426;2023-01-31T00:31:09;100927.22;;;3.28;100.00
56928;BME280;60850;52.502;13.426;2023-01-31T00:33:37;100921.06;;;3.30;100.00
56928;BME280;60850;52.502;13.426;2023-01-31T00:36:06;100914.94;;;3.35;100.00
56928;BME280;60850;52.502;13.426;2023-01-31T00:38:34;100916.72;;;3.33;100.00
56928;BME280;60850;52.502;13.426;2023-01-31T00:41:02;100919.31;;;3.28;100.00
56928;BME280;60850;52.502;13.426;2023-01-31T00:43:31;100926.34;;;3.30;100.00
56928;BME280;60850;52.502;13.426;2023-01-31T00:45:58;100919.31;;;3.31;100.00
56928;BME280;60850;52.502;13.426;2023-01-31T00:48:25;100936.06;;;3.41;100.00
56928;BME280;60850;52.502;13.426;2023-01-31T00:50:52;100939.56;;;3.37;100.00
56928;BME280;60850;52.502;13.426;2023-01-31T00:53:19;100946.56;;;3.36;100.00
56928;BME280;60850;52.502;13.426;2023-01-31T00:55:48;100948.38;;;3.40;100.00
56928;BME280;60850;52.502;13.426;2023-01-31T00:58:15;100953.72;;;3.54;100.00
56928;BME280;60850;52.502;13.426;2023-01-31T01:00:43;100945.00;;;3.70;100.00
56928;BME280;60850;52.502;13.426;2023-01-31T01:03:10;100962.66;;;3.86;100.00
56928;BME280;60850;52.502;13.426;2023-01-31T01:05:37;100966.22;;;3.99;100.00
56928;BME280;60850;52.502;13.426;2023-01-31T01:08:04;100966.31;;;4.16;100.00
56928;BME280;60850;52.502;13.426;2023-01-31T01:10:32;100970.72;;;4.25;100.00
56928;BME280;60850;52.502;13.426;2023-01-31T01:12:58;100975.16;;;4.30;100.00
56928;BME280;60850;52.502;13.426;2023-01-31T01:15:26;100980.41;;;4.36;100.00
56928;BME280;60850;52.502;13.426;2023-01-31T01:17:55;100990.13;;;4.45;100.00
56928;BME280;60850;52.502;13.426;2023-01-31T01:20:22;100996.28;;;4.49;100.00
56928;BME280;60850;52.502;13.426;2023-01-31T01:22:48;101001.59;;;4.53;100.00
56928;BME280;60850;52.502;13.426;2023-01-31T01:25:15;100991.00;;;4.49;100.00
56928;BME280;60850;52.502;13.426;2023-01-31T01:27:42;100994.53;;;4.48;100.00
56928;BME280;60850;52.502;13.426;2023-01-31T01:30:10;100999.84;;;4.54;100.00
56928;BME280;60850;52.502;13.426;2023-01-31T01:32:37;100995.44;;;4.54;100.00
56928;BME280;60850;52.502;13.426;2023-01-31T01:35:06;100988.38;;;4.56;100.00
56928;BME280;60850;52.502;13.426;2023-01-31T01:37:34;101001.59;;;4.58;100.00
56928;BME280;60850;52.502;13.426;2023-01-31T01:40:02;101000.69;;;4.57;100.00
56928;BME280;60850;52.502;13.426;2023-01-31T01:42:33;100988.41;;;4.52;100.00
56928;BME280;60850;52.502;13.426;2023-01-31T01:45:01;100998.94;;;4.55;100.00
56928;BME280;60850;52.502;13.426;2023-01-31T01:47:33;101003.34;;;4.57;100.00
56928;BME280;60850;52.502;13.426;2023-01-31T01:50:06;101003.34;;;4.65;100.00
56928;BME280;60850;52.502;13.426;2023-01-31T01:52:35;101013.94;;;4.68;100.00
56928;BME280;60850;52.502;13.426;2023-01-31T01:55:09;101023.59;;;4.55;100.00
56928;BME280;60850;52.502;13.426;2023-01-31T01:57:38;101032.38;;;4.50;100.00
56928;BME280;60850;52.502;13.426;2023-01-31T02:00:12;101038.53;;;4.46;100.00
56928;BME280;60850;52.502;13.426;2023-01-31T02:02:39;101043.78;;;4.41;100.00
56928;BME280;60850;52.502;13.426;2023-01-31T02:05:10;101047.34;;;4.45;100.00
56928;BME280;60850;52.502;13.426;2023-01-31T02:07:38;101049.94;;;4.43;100.00
56928;BME280;60850;52.502;13.426;2023-01-31T02:10:09;101059.63;;;4.43;100.00
56928;BME280;60850;52.502;13.426;2023-01-31T02:12:38;101066.69;;;4.47;100.00
56928;BME280;60850;52.502;13.426;2023-01-31T02:15:06;101065.81;;;4.51;100.00
56928;BME280;60850;52.502;13.426;2023-01-31T02:17:33;101064.97;;;4.52;100.00
56928;BME280;60850;52.502;13.426;2023-01-31T02:20:19;101055.28;;;4.57;100.00
56928;BME280;60850;52.502;13.426;2023-01-31T02:23:01;101064.94;;;4.55;100.00
56928;BME280;60850;52.502;13.426;2023-01-31T02:25:49;101082.56;;;4.56;100.00
56928;BME280;60850;52.502;13.426;2023-01-31T02:29:09;101088.78;;;4.65;100.00
56928;BME280;60850;52.502;13.426;2023-01-31T02:34:50;101103.75;;;4.74;100.00
56928;BME280;60850;52.502;13.426;2023-01-31T02:37:26;101111.69;;;4.77;100.00
56928;BME280;60850;52.502;13.426;2023-01-31T02:40:00;101105.53;;;4.84;100.00
56928;BME280;60850;52.502;13.426;2023-01-31T02:42:34;101125.78;;;4.85;100.00
56928;BME280;60850;52.502;13.426;2023-01-31T02:45:06;101111.66;;;4.79;100.00
56928;BME280;60850;52.502;13.426;2023-01-31T02:47:47;101096.72;;;4.81;100.00
56928;BME280;60850;52.502;13.426;2023-01-31T02:50:23;101107.28;;;4.78;100.00
56928;BME280;60850;52.502;13.426;2023-01-31T02:52:56;101091.44;;;4.76;100.00
56928;BME280;60850;52.502;13.426;2023-01-31T02:55:28;101098.41;;;4.53;100.00
56928;BME280;60850;52.502;13.426;2023-01-31T02:58:16;101095.69;;;4.42;100.00
56928;BME280;60850;52.502;13.426;2023-01-31T03:00:45;101110.59;;;4.23;100.00
56928;BME280;60850;52.502;13.426;2023-01-31T03:03:19;101095.53;;;4.05;100.00
56928;BME280;60850;52.502;13.426;2023-01-31T03:09:02;101099.69;;;3.71;100.00
56928;BME280;60850;52.502;13.426;2023-01-31T03:11:45;101096.94;;;3.57;100.00
56928;BME280;60850;52.502;13.426;2023-01-31T03:14:23;101099.53;;;3.50;100.00
56928;BME280;60850;52.502;13.426;2023-01-31T03:16:55;101097.66;;;3.37;100.00
56928;BME280;60850;52.502;13.426;2023-01-31T03:19:47;101084.47;;;3.34;100.00
56928;BME280;60850;52.502;13.426;2023-01-31T03:22:19;101104.63;;;3.28;100.00
56928;BME280;60850;52.502;13.426;2023-01-31T03:24:49;101107.25;;;3.27;100.00
56928;BME280;60850;52.502;13.426;2023-01-31T03:27:18;101102.84;;;3.27;100.00
56928;BME280;60850;52.502;13.426;2023-01-31T03:29:46;101101.91;;;3.18;100.00
56928;BME280;60850;52.502;13.426;2023-01-31T03:32:17;101112.38;;;3.13;100.00
56928;BME280;60850;52.502;13.426;2023-01-31T03:34:46;101114.97;;;3.07;100.00
56928;BME280;60850;52.502;13.426;2023-01-31T03:37:19;101122.84;;;3.06;100.00
56928;BME280;60850;52.502;13.426;2023-01-31T03:39:52;101122.78;;;3.01;100.00
56928;BME280;60850;52.502;13.426;2023-01-31T03:42:24;101133.31;;;2.96;100.00
56928;BME280;60850;52.502;13.426;2023-01-31T03:44:59;101120.16;;;3.01;100.00
56928;BME280;60850;52.502;13.426;2023-01-31T03:47:32;101135.94;;;2.98;100.00
56928;BME280;60850;52.502;13.426;2023-01-31T03:50:05;101129.75;;;2.94;100.00
56928;BME280;60850;52.502;13.426;2023-01-31T03:52:36;101138.56;;;2.98;100.00
56928;BME280;60850;52.502;13.426;2023-01-31T03:55:09;101129.81;;;3.00;100.00
56928;BME280;60850;52.502;13.426;2023-01-31T03:57:41;101125.41;;;2.96;100.00
56928;BME280;60850;52.502;13.426;2023-01-31T04:00:14;101132.34;;;2.90;100.00
56928;BME280;60850;52.502;13.426;2023-01-31T04:02:42;101141.94;;;2.86;100.00
56928;BME280;60850;52.502;13.426;2023-01-31T04:05:11;101135.72;;;2.81;100.00
56928;BME280;60850;52.502;13.426;2023-01-31T04:07:40;101134.84;;;2.81;100.00
56928;BME280;60850;52.502;13.426;2023-01-31T04:10:11;101145.34;;;2.76;100.00
56928;BME280;60850;52.502;13.426;2023-01-31T04:12:39;101142.72;;;2.78;100.00
56928;BME280;60850;52.502;13.426;2023-01-31T04:15:08;101148.06;;;2.82;100.00
56928;BME280;60850;52.502;13.426;2023-01-31T04:17:35;101147.13;;;2.80;100.00
56928;BME280;60850;52.502;13.426;2023-01-31T04:20:03;101155.03;;;2.82;100.00
56928;BME280;60850;52.502;13.426;2023-01-31T04:22:30;101149.84;;;2.85;100.00
56928;BME280;60850;52.502;13.426;2023-01-31T04:24:58;101156.84;;;2.83;100.00
56928;BME280;60850;52.502;13.426;2023-01-31T04:27:25;101156.78;;;2.78;100.00
56928;BME280;60850;52.502;13.426;2023-01-31T04:29:52;101152.41;;;2.79;100.00
56928;BME280;60850;52.502;13.426;2023-01-31T04:32:19;101160.22;;;2.72;100.00
56928;BME280;60850;52.502;13.426;2023-01-31T04:34:46;101160.19;;;2.71;100.00
56928;BME280;60850;52.502;13.426;2023-01-31T04:37:12;101157.59;;;2.72;100.00
56928;BME280;60850;52.502;13.426;2023-01-31T04:39:39;101158.44;;;2.71;100.00
56928;BME280;60850;52.502;13.426;2023-01-31T04:42:07;101168.16;;;2.75;100.00
56928;BME280;60850;52.502;13.426;2023-01-31T04:44:34;101179.59;;;2.78;100.00
56928;BME280;60850;52.502;13.426;2023-01-31T04:47:01;101174.25;;;2.71;100.00
56928;BME280;60850;52.502;13.426;2023-01-31T04:49:28;101194.41;;;2.69;100.00
56928;BME280;60850;52.502;13.426;2023-01-31T04:51:55;101192.69;;;2.73;100.00
56928;BME280;60850;52.502;13.426;2023-01-31T04:54:22;101190.94;;;2.73;100.00
56928;BME280;60850;52.502;13.426;2023-01-31T04:56:49;101196.25;;;2.77;100.00
56928;BME280;60850;52.502;13.426;2023-01-31T04:59:17;101202.44;;;2.80;100.00
56928;BME280;60850;52.502;13.426;2023-01-31T05:01:44;101195.47;;;2.84;100.00
56928;BME280;60850;52.502;13.426;2023-01-31T05:04:11;101204.28;;;2.87;100.00
56928;BME280;60850;52.502;13.426;2023-01-31T05:06:37;101195.53;;;2.90;100.00
56928;BME280;60850;52.502;13.426;2023-01-31T05:09:04;101181.50;;;2.91;100.00
56928;BME280;60850;52.502;13.426;2023-01-31T05:11:32;101193.91;;;3.01;100.00
56928;BME280;60850;52.502;13.426;2023-01-31T05:13:59;101192.13;;;3.00;100.00
56928;BME280;60850;52.502;13.426;2023-01-31T05:16:27;101189.50;;;3.01;100.00
56928;BME280;60850;52.502;13.426;2023-01-31T05:18:54;101189.50;;;3.01;100.00
56928;BME280;60850;52.502;13.426;2023-01-31T05:21:21;101194.78;;;3.03;100.00
56928;BME280;60850;52.502;13.426;2023-01-31T05:23:48;101196.66;;;3.10;100.00
56928;BME280;60850;52.502;13.426;2023-01-31T05:26:14;101200.97;;;3.03;100.00
56928;BME280;60850;52.502;13.426;2023-01-31T05:28:41;101205.38;;;3.06;100.00
56928;BME280;60850;52.502;13.426;2023-01-31T05:31:08;101203.56;;;3.02;100.00
56928;BME280;60850;52.502;13.426;2023-01-31T05:33:39;101210.66;;;3.09;100.00
56928;BME280;60850;52.502;13.426;2023-01-31T05:36:06;101195.75;;;3.08;100.00
56928;BME280;60850;52.502;13.426;2023-01-31T05:38:33;101203.72;;;3.13;100.00
56928;BME280;60850;52.502;13.426;2023-01-31T05:41:00;101206.44;;;3.20;100.00
56928;BME280;60850;52.502;13.426;2023-01-31T05:43:27;101217.06;;;3.29;100.00
56928;BME280;60850;52.502;13.426;2023-01-31T05:45:53;101217.19;;;3.43;100.00
56928;BME280;60850;52.502;13.426;2023-01-31T05:48:20;101213.81;;;3.58;100.00
56928;BME280;60850;52.502;13.426;2023-01-31T05:50:49;101212.19;;;3.71;100.00
56928;BME280;60850;52.502;13.426;2023-01-31T05:53:16;101214.06;;;3.84;100.00
56928;BME280;60850;52.502;13.426;2023-01-31T05:55:43;101218.56;;;3.96;100.00
56928;BME280;60850;52.502;13.426;2023-01-31T05:58:10;101216.88;;;4.05;100.00
56928;BME280;60850;52.502;13.426;2023-01-31T06:00:37;101219.56;;;4.10;100.00
56928;BME280;60850;52.502;13.426;2023-01-31T06:03:04;101217.81;;;4.15;100.00
56928;BME280;60850;52.502;13.426;2023-01-31T06:05:31;101217.91;;;4.24;100.00
56928;BME280;60850;52.502;13.426;2023-01-31T06:08:00;101229.41;;;4.31;100.00
56928;BME280;60850;52.502;13.426;2023-01-31T06:10:26;101214.41;;;4.30;100.00
56928;BME280;60850;52.502;13.426;2023-01-31T06:12:53;101216.19;;;4.34;100.00
56928;BME280;60850;52.502;13.426;2023-01-31T06:15:20;101213.56;;;4.34;100.00
56928;BME280;60850;52.502;13.426;2023-01-31T06:17:47;101218.84;;;4.34;100.00
56928;BME280;60850;52.502;13.426;2023-01-31T06:20:14;101214.47;;;4.37;100.00
56928;BME280;60850;52.502;13.426;2023-01-31T06:22:41;101226.81;;;4.38;100.00
56928;BME280;60850;52.502;13.426;2023-01-31T06:25:09;101238.25;;;4.37;100.00
56928;BME280;60850;52.502;13.426;2023-01-31T06:27:36;101235.59;;;4.37;100.00
56928;BME280;60850;52.502;13.426;2023-01-31T06:30:04;101238.28;;;4.45;100.00
56928;BME280;60850;52.502;13.426;2023-01-31T06:32:31;101251.53;;;4.53;100.00
56928;BME280;60850;52.502;13.426;2023-01-31T06:34:57;101248.91;;;4.54;100.00
56928;BME280;60850;52.502;13.426;2023-01-31T06:37:24;101251.53;;;4.56;100.00
56928;BME280;60850;52.502;13.426;2023-01-31T06:39:51;101253.38;;;4.66;100.00
56928;BME280;60850;52.502;13.426;2023-01-31T06:42:19;101256.91;;;4.71;100.00
56928;BME280;60850;52.502;13.426;2023-01-31T06:44:46;101267.50;;;4.77;100.00
56928;BME280;60850;52.502;13.426;2023-01-31T06:47:13;101260.53;;;4.88;100.00
56928;BME280;60850;52.502;13.426;2023-01-31T06:49:40;101253.50;;;4.90;100.00
56928;BME280;60850;52.502;13.426;2023-01-31T06:52:07;101244.72;;;4.97;100.00
56928;BME280;60850;52.502;13.426;2023-01-31T06:54:33;101251.78;;;5.03;100.00
56928;BME280;60850;52.502;13.426;2023-01-31T06:57:00;101252.72;;;5.10;100.00
56928;BME280;60850;52.502;13.426;2023-01-31T06:59:28;101256.25;;;5.15;100.00
56928;BME280;60850;52.502;13.426;2023-01-31T07:01:55;101263.31;;;5.20;100.00
56928;BME280;60850;52.502;13.426;2023-01-31T07:04:23;101249.25;;;5.21;100.00
56928;BME280;60850;52.502;13.426;2023-01-31T07:06:50;101246.59;;;5.26;100.00
56928;BME280;60850;52.502;13.426;2023-01-31T07:09:16;101255.44;;;5.31;100.00
56928;BME280;60850;52.502;13.426;2023-01-31T07:11:43;101245.72;;;5.33;100.00
56928;BME280;60850;52.502;13.426;2023-01-31T07:14:10;101253.66;;;5.30;100.00
56928;BME280;60850;52.502;13.426;2023-01-31T07:16:38;101248.34;;;5.27;100.00
56928;BME280;60850;52.502;13.426;2023-01-31T07:19:05;101239.56;;;5.22;100.00
56928;BME280;60850;52.502;13.426;2023-01-31T07:21:32;101236.00;;;5.18;100.00
56928;BME280;60850;52.502;13.426;2023-01-31T07:24:00;101230.69;;;5.14;100.00
56928;BME280;60850;52.502;13.426;2023-01-31T07:26:28;101220.13;;;5.17;100.00
56928;BME280;60850;52.502;13.426;2023-01-31T07:28:54;101231.59;;;5.17;100.00
56928;BME280;60850;52.502;13.426;2023-01-31T07:31:21;101236.88;;;5.19;100.00
56928;BME280;60850;52.502;13.426;2023-01-31T07:33:49;101239.53;;;5.19;100.00
56928;BME280;60850;52.502;13.426;2023-01-31T07:36:16;101249.22;;;5.18;100.00
56928;BME280;60850;52.502;13.426;2023-01-31T07:38:52;101239.53;;;5.17;100.00
56928;BME280;60850;52.502;13.426;2023-01-31T07:41:19;101247.44;;;5.20;100.00
56928;BME280;60850;52.502;13.426;2023-01-31T07:43:46;101239.53;;;5.19;100.00
56928;BME280;60850;52.502;13.426;2023-01-31T07:46:14;101248.34;;;5.18;100.00
56928;BME280;60850;52.502;13.426;2023-01-31T07:48:40;101243.03;;;5.13;100.00
56928;BME280;60850;52.502;13.426;2023-01-31T07:51:09;101241.25;;;5.12;100.00
56928;BME280;60850;52.502;13.426;2023-01-31T07:53:38;101243.06;;;5.15;100.00
56928;BME280;60850;52.502;13.426;2023-01-31T07:56:08;101246.59;;;5.26;100.00
56928;BME280;60850;52.502;13.426;2023-01-31T07:58:36;101239.53;;;5.23;100.00
56928;BME280;60850;52.502;13.426;2023-01-31T08:01:04;101243.06;;;5.27;100.00
56928;BME280;60850;52.502;13.426;2023-01-31T08:03:48;101239.56;;;5.34;100.00
56928;BME280;60850;52.502;13.426;2023-01-31T08:06:17;101227.22;;;5.33;100.00
56928;BME280;60850;52.502;13.426;2023-01-31T08:08:45;101233.41;;;5.31;100.00
56928;BME280;60850;52.502;13.426;2023-01-31T08:11:12;101223.75;;;5.43;100.00
56928;BME280;60850;52.502;13.426;2023-01-31T08:13:39;101233.44;;;5.44;100.00
56928;BME280;60850;52.502;13.426;2023-01-31T08:16:07;101236.06;;;5.47;100.00
56928;BME280;60850;52.502;13.426;2023-01-31T08:18:35;101224.63;;;5.47;100.00
56928;BME280;60850;52.502;13.426;2023-01-31T08:21:02;101221.97;;;5.55;100.00
56928;BME280;60850;52.502;13.426;2023-01-31T08:23:31;101229.06;;;5.65;100.00
56928;BME280;60850;52.502;13.426;2023-01-31T08:25:59;101228.19;;;5.72;100.00
56928;BME280;60850;52.502;13.426;2023-01-31T08:28:26;101223.78;;;5.68;100.00
56928;BME280;60850;52.502;13.426;2023-01-31T08:30:53;101214.06;;;5.68;100.00
56928;BME280;60850;52.502;13.426;2023-01-31T08:33:19;101223.78;;;5.68;100.00
56928;BME280;60850;52.502;13.426;2023-01-31T08:35:46;101217.63;;;5.64;100.00
56928;BME280;60850;52.502;13.426;2023-01-31T08:38:13;101205.25;;;5.66;100.00
56928;BME280;60850;52.502;13.426;2023-01-31T08:40:42;101222.91;;;5.67;100.00
56928;BME280;60850;52.502;13.426;2023-01-31T08:43:10;101223.75;;;5.60;100.00
56928;BME280;60850;52.502;13.426;2023-01-31T08:45:37;101209.66;;;5.63;100.00
56928;BME280;60850;52.502;13.426;2023-01-31T08:48:04;101214.06;;;5.61;100.00
56928;BME280;60850;52.502;13.426;2023-01-31T08:50:32;101214.06;;;5.61;100.00
56928;BME280;60850;52.502;13.426;2023-01-31T08:53:01;101216.69;;;5.64;100.00
56928;BME280;60850;52.502;13.426;2023-01-31T08:55:29;101219.34;;;5.70;100.00
56928;BME280;60850;52.502;13.426;2023-01-31T08:57:58;101210.56;;;5.72;100.00
56928;BME280;60850;52.502;13.426;2023-01-31T09:00:27;101211.44;;;5.79;100.00
56928;BME280;60850;52.502;13.426;2023-01-31T09:02:55;101214.97;;;5.81;100.00
56928;BME280;60850;52.502;13.426;2023-01-31T09:05:24;101205.28;;;5.91;100.00
56928;BME280;60850;52.502;13.426;2023-01-31T09:07:51;101204.41;;;5.98;100.00
56928;BME280;60850;52.502;13.426;2023-01-31T09:10:20;101213.22;;;6.04;100.00
56928;BME280;60850;52.502;13.426;2023-01-31T09:12:47;101212.34;;;6.05;100.00
56928;BME280;60850;52.502;13.426;2023-01-31T09:15:16;101199.13;;;6.07;100.00
56928;BME280;60850;52.502;13.426;2023-01-31T09:17:43;101192.06;;;6.01;100.00
56928;BME280;60850;52.502;13.426;2023-01-31T09:20:10;101192.97;;;6.00;100.00
56928;BME280;60850;52.502;13.426;2023-01-31T09:22:37;101188.56;;;5.99;100.00
56928;BME280;60850;52.502;13.426;2023-01-31T09:25:05;101184.13;;;6.00;100.00
56928;BME280;60850;52.502;13.426;2023-01-31T09:27:32;101168.25;;;5.98;100.00
56928;BME280;60850;52.502;13.426;2023-01-31T09:30:01;101184.13;;;5.97;100.00
56928;BME280;60850;52.502;13.426;2023-01-31T09:32:30;101199.13;;;6.04;100.00
56928;BME280;60850;52.502;13.426;2023-01-31T09:34:57;101181.47;;;5.97;100.00
56928;BME280;60850;52.502;13.426;2023-01-31T09:37:24;101183.25;;;6.09;100.00
56928;BME280;60850;52.502;13.426;2023-01-31T09:39:51;101160.28;;;6.11;100.00
56928;BME280;60850;52.502;13.426;2023-01-31T09:42:21;101173.50;;;6.20;100.00
56928;BME280;60850;52.502;13.426;2023-01-31T09:44:57;101170.00;;;6.21;100.00
56928;BME280;60850;52.502;13.426;2023-01-31T09:47:26;101164.66;;;6.25;100.00
56928;BME280;60850;52.502;13.426;2023-01-31T09:49:58;101162.91;;;6.32;100.00
56928;BME280;60850;52.502;13.426;2023-01-31T09:52:26;101158.44;;;6.49;100.00
56928;BME280;60850;52.502;13.426;2023-01-31T09:54:56;101154.88;;;6.63;100.00
56928;BME280;60850;52.502;13.426;2023-01-31T09:57:33;101145.97;;;6.79;100.00
56928;BME280;60850;52.502;13.426;2023-01-31T10:00:14;101140.66;;;6.85;100.00
56928;BME280;60850;52.502;13.426;2023-01-31T10:02:59;101139.72;;;6.94;100.00
56928;BME280;60850;52.502;13.426;2023-01-31T10:05:37;101135.31;;;6.93;100.00
56928;BME280;60850;52.502;13.426;2023-01-31T10:08:14;101127.38;;;6.83;100.00
56928;BME280;60850;52.502;13.426;2023-01-31T10:10:46;101122.09;;;6.86;100.00
56928;BME280;60850;52.502;13.426;2023-01-31T10:13:19;101116.75;;;6.88;100.00
56928;BME280;60850;52.502;13.426;2023-01-31T10:15:50;101105.28;;;6.87;100.00
56928;BME280;60850;52.502;13.426;2023-01-31T10:18:23;101121.16;;;6.92;100.00
56928;BME280;60850;52.502;13.426;2023-01-31T10:20:56;101106.09;;;6.97;100.00
56928;BME280;60850;52.502;13.426;2023-01-31T10:23:28;101105.22;;;6.97;100.00
56928;BME280;60850;52.502;13.426;2023-01-31T10:25:59;101102.59;;;6.91;100.00
56928;BME280;60850;52.502;13.426;2023-01-31T10:28:33;101102.66;;;6.84;100.00
56928;BME280;60850;52.502;13.426;2023-01-31T10:31:06;101094.72;;;6.81;100.00
56928;BME280;60850;52.502;13.426;2023-01-31T10:33:42;101092.94;;;6.85;100.00
56928;BME280;60850;52.502;13.426;2023-01-31T10:36:22;101085.03;;;6.77;100.00
56928;BME280;60850;52.502;13.426;2023-01-31T10:38:58;101076.22;;;6.77;100.00
56928;BME280;60850;52.502;13.426;2023-01-31T10:41:38;101062.06;;;6.75;100.00
56928;BME280;60850;52.502;13.426;2023-01-31T10:44:14;101063.81;;;6.76;100.00
56928;BME280;60850;52.502;13.426;2023-01-31T10:46:46;101068.28;;;6.71;100.00
56928;BME280;60850;52.502;13.426;2023-01-31T10:49:13;101060.28;;;6.78;100.00
56928;BME280;60850;52.502;13.426;2023-01-31T10:51:52;101061.13;;;6.82;100.00
56928;BME280;60850;52.502;13.426;2023-01-31T10:54:32;101051.34;;;6.96;100.00
56928;BME280;60850;52.502;13.426;2023-01-31T10:57:02;101050.41;;;7.03;100.00
56928;BME280;60850;52.502;13.426;2023-01-31T10:59:32;101051.22;;;7.14;100.00
56928;BME280;60850;52.502;13.426;2023-01-31T11:02:01;101036.97;;;7.25;100.00
56928;BME280;60850;52.502;13.426;2023-01-31T11:04:30;101036.94;;;7.29;100.00
56928;BME280;60850;52.502;13.426;2023-01-31T11:07:00;101027.19;;;7.36;100.00
56928;BME280;60850;52.502;13.426;2023-01-31T11:09:31;101016.53;;;7.39;100.00
56928;BME280;60850;52.502;13.426;2023-01-31T11:12:00;101011.16;;;7.45;100.00
56928;BME280;60850;52.502;13.426;2023-01-31T11:14:27;101018.22;;;7.46;100.00
56928;BME280;60850;52.502;13.426;2023-01-31T11:16:59;101005.84;;;7.48;100.00
56928;BME280;60850;52.502;13.426;2023-01-31T11:19:33;101005.91;;;7.39;100.00
56928;BME280;60850;52.502;13.426;2023-01-31T11:22:03;101009.63;;;7.21;100.00
56928;BME280;60850;52.502;13.426;2023-01-31T11:24:32;101000.09;;;6.99;100.00
56928;BME280;60850;52.502;13.426;2023-01-31T11:27:02;100996.59;;;6.94;100.00
56928;BME280;60850;52.502;13.426;2023-01-31T11:29:32;100984.19;;;6.96;100.00
56928;BME280;60850;52.502;13.426;2023-01-31T11:32:04;100980.66;;;6.98;100.00
56928;BME280;60850;52.502;13.426;2023-01-31T11:34:32;100974.38;;;7.08;100.00
56928;BME280;60850;52.502;13.426;2023-01-31T11:37:05;100961.16;;;7.04;100.00
56928;BME280;60850;52.502;13.426;2023-01-31T11:39:34;100966.47;;;7.02;100.00
56928;BME280;60850;52.502;13.426;2023-01-31T11:42:10;100962.91;;;7.03;100.00
56928;BME280;60850;52.502;13.426;2023-01-31T11:44:53;100952.38;;;6.97;100.00
56928;BME280;60850;52.502;13.426;2023-01-31T11:47:25;100957.69;;;6.96;100.00
56928;BME280;60850;52.502;13.426;2023-01-31T11:49:53;100947.91;;;7.02;100.00
56928;BME280;60850;52.502;13.426;2023-01-31T11:52:28;100942.66;;;6.96;100.00
56928;BME280;60850;52.502;13.426;2023-01-31T11:54:57;100940.09;;;6.87;100.00
56928;BME280;60850;52.502;13.426;2023-01-31T11:57:28;100930.41;;;6.84;100.00
56928;BME280;60850;52.502;13.426;2023-01-31T11:59:57;100926.00;;;6.82;100.00
56928;BME280;60850;52.502;13.426;2023-01-31T12:02:30;100918.91;;;6.87;100.00
56928;BME280;60850;52.502;13.426;2023-01-31T12:05:00;100898.63;;;6.84;100.00
56928;BME280;60850;52.502;13.426;2023-01-31T12:07:42;100884.53;;;6.78;100.00
56928;BME280;60850;52.502;13.426;2023-01-31T12:10:30;100883.63;;;6.79;100.00
56928;BME280;60850;52.502;13.426;2023-01-31T12:12:59;100871.28;;;6.78;100.00
56928;BME280;60850;52.502;13.426;2023-01-31T12:15:27;100856.34;;;6.68;100.00
56928;BME280;60850;52.502;13.426;2023-01-31T12:17:57;100846.66;;;6.65;100.00
56928;BME280;60850;52.502;13.426;2023-01-31T12:20:36;100852.75;;;6.75;100.00
56928;BME280;60850;52.502;13.426;2023-01-31T12:23:18;100842.19;;;6.72;100.00
56928;BME280;60850;52.502;13.426;2023-01-31T12:26:01;100842.19;;;6.69;100.00
56928;BME280;60850;52.502;13.426;2023-01-31T12:28:37;100841.38;;;6.64;100.00
56928;BME280;60850;52.502;13.426;2023-01-31T12:34:10;100822.06;;;6.51;100.00
56928;BME280;60850;52.502;13.426;2023-01-31T12:36:48;100825.63;;;6.50;100.00
56928;BME280;60850;52.502;13.426;2023-01-31T12:39:35;100815.03;;;6.47;100.00
56928;BME280;60850;52.502;13.426;2023-01-31T12:42:17;100815.03;;;6.50;100.00
56928;BME280;60850;52.502;13.426;2023-01-31T12:44:50;100807.06;;;6.51;100.00
56928;BME280;60850;52.502;13.426;2023-01-31T12:50:29;100800.84;;;6.55;100.00
56928;BME280;60850;52.502;13.426;2023-01-31T12:53:27;100803.56;;;6.49;100.00
56928;BME280;60850;52.502;13.426;2023-01-31T12:58:53;100791.34;;;6.30;100.00
56928;BME280;60850;52.502;13.426;2023-01-31T13:01:31;100799.28;;;6.30;100.00
56928;BME280;60850;52.502;13.426;2023-01-31T13:04:15;100781.72;;;6.18;100.00
56928;BME280;60850;52.502;13.426;2023-01-31T13:06:51;100777.31;;;6.19;100.00
56928;BME280;60850;52.502;13.426;2023-01-31T13:09:20;100775.59;;;6.15;100.00
56928;BME280;60850;52.502;13.426;2023-01-31T13:11:53;100780.03;;;6.10;100.00